Terminal Aerodrome Forecast
Issued by NWS Green Bay, WI

Home | Current Version | Previous Version | Graphics & Text | Print | Product List | Glossary On
Versions: 1 2 3 4 5 6 7 8 9 10 11 12 13 14 15 16 17 18 19 20 21 22 23
000
FTUS43 KGRB 220848 AAA
TAFGRB
TAF AMD
KGRB 220848Z 2209/2306 04017G25KT 1SM BR OVC002
      TEMPO 2209/2211 3/4SM -RA BR
     FM221300 05017G25KT 1SM -RASN OVC002
     FM230000 04016G25KT 4SM -DZ BR OVC003
     FM230200 03017G25KT 3SM -FZDZSN OVC008=

USA.gov is the U.S. government's official web portal to all federal, state and local government web resources and services.